sensor_id;sensor_type;location;lat;lon;timestamp;P1;durP1;ratioP1;P2;durP2;ratioP2
23573;SDS011;11965;53.640;10.050;2022-12-18T00:02:21;34.27;;;33.40;;
23573;SDS011;11965;53.640;10.050;2022-12-18T00:04:48;33.22;;;32.69;;
23573;SDS011;11965;53.640;10.050;2022-12-18T00:07:15;34.33;;;33.69;;
23573;SDS011;11965;53.640;10.050;2022-12-18T00:09:41;33.60;;;33.03;;
23573;SDS011;11965;53.640;10.050;2022-12-18T00:12:08;34.01;;;33.47;;
23573;SDS011;11965;53.640;10.050;2022-12-18T00:14:36;32.77;;;32.12;;
23573;SDS011;11965;53.640;10.050;2022-12-18T00:17:03;34.45;;;33.73;;
23573;SDS011;11965;53.640;10.050;2022-12-18T00:19:30;35.31;;;34.50;;
23573;SDS011;11965;53.640;10.050;2022-12-18T00:21:57;34.31;;;33.73;;
23573;SDS011;11965;53.640;10.050;2022-12-18T00:24:24;34.45;;;33.91;;
23573;SDS011;11965;53.640;10.050;2022-12-18T00:26:51;35.16;;;34.68;;
23573;SDS011;11965;53.640;10.050;2022-12-18T00:29:18;35.12;;;34.30;;
23573;SDS011;11965;53.640;10.050;2022-12-18T00:31:46;34.09;;;33.56;;
23573;SDS011;11965;53.640;10.050;2022-12-18T00:34:13;35.76;;;35.15;;
23573;SDS011;11965;53.640;10.050;2022-12-18T00:36:40;35.50;;;34.91;;
23573;SDS011;11965;53.640;10.050;2022-12-18T00:39:08;36.27;;;35.45;;
23573;SDS011;11965;53.640;10.050;2022-12-18T00:41:37;35.58;;;35.01;;
23573;SDS011;11965;53.640;10.050;2022-12-18T00:44:21;35.41;;;34.90;;
23573;SDS011;11965;53.640;10.050;2022-12-18T00:46:51;34.66;;;34.41;;
23573;SDS011;11965;53.640;10.050;2022-12-18T00:49:18;34.69;;;34.09;;
23573;SDS011;11965;53.640;10.050;2022-12-18T00:51:46;33.55;;;33.14;;
23573;SDS011;11965;53.640;10.050;2022-12-18T00:54:12;33.84;;;33.35;;
23573;SDS011;11965;53.640;10.050;2022-12-18T00:56:39;33.79;;;33.39;;
23573;SDS011;11965;53.640;10.050;2022-12-18T00:59:08;33.36;;;32.78;;
23573;SDS011;11965;53.640;10.050;2022-12-18T01:01:37;32.54;;;32.25;;
23573;SDS011;11965;53.640;10.050;2022-12-18T01:04:06;31.96;;;31.72;;
23573;SDS011;11965;53.640;10.050;2022-12-18T01:06:33;31.36;;;31.07;;
23573;SDS011;11965;53.640;10.050;2022-12-18T01:09:00;31.97;;;31.58;;
23573;SDS011;11965;53.640;10.050;2022-12-18T01:11:27;32.26;;;31.53;;
23573;SDS011;11965;53.640;10.050;2022-12-18T01:13:54;31.24;;;31.06;;
23573;SDS011;11965;53.640;10.050;2022-12-18T01:16:24;31.28;;;30.93;;
23573;SDS011;11965;53.640;10.050;2022-12-18T01:18:52;31.61;;;31.30;;
23573;SDS011;11965;53.640;10.050;2022-12-18T01:21:22;31.14;;;30.54;;
23573;SDS011;11965;53.640;10.050;2022-12-18T01:23:51;31.34;;;30.85;;
23573;SDS011;11965;53.640;10.050;2022-12-18T01:26:19;30.76;;;30.55;;
23573;SDS011;11965;53.640;10.050;2022-12-18T01:28:46;30.70;;;30.11;;
23573;SDS011;11965;53.640;10.050;2022-12-18T01:31:15;31.06;;;30.35;;
23573;SDS011;11965;53.640;10.050;2022-12-18T01:33:45;30.25;;;29.99;;
23573;SDS011;11965;53.640;10.050;2022-12-18T01:36:16;30.54;;;30.25;;
23573;SDS011;11965;53.640;10.050;2022-12-18T01:38:46;30.35;;;30.26;;
23573;SDS011;11965;53.640;10.050;2022-12-18T01:41:14;30.47;;;30.03;;
23573;SDS011;11965;53.640;10.050;2022-12-18T01:43:47;29.90;;;29.68;;
23573;SDS011;11965;53.640;10.050;2022-12-18T01:46:17;29.62;;;29.28;;
23573;SDS011;11965;53.640;10.050;2022-12-18T01:48:46;29.75;;;29.37;;
23573;SDS011;11965;53.640;10.050;2022-12-18T01:51:17;30.12;;;29.75;;
23573;SDS011;11965;53.640;10.050;2022-12-18T01:53:45;29.20;;;28.84;;
23573;SDS011;11965;53.640;10.050;2022-12-18T01:56:16;28.82;;;28.52;;
23573;SDS011;11965;53.640;10.050;2022-12-18T01:58:47;28.26;;;28.10;;
23573;SDS011;11965;53.640;10.050;2022-12-18T02:01:19;29.12;;;28.71;;
23573;SDS011;11965;53.640;10.050;2022-12-18T02:03:47;29.10;;;28.70;;
23573;SDS011;11965;53.640;10.050;2022-12-18T02:06:16;29.34;;;29.08;;
23573;SDS011;11965;53.640;10.050;2022-12-18T02:08:56;27.83;;;27.51;;
23573;SDS011;11965;53.640;10.050;2022-12-18T02:11:33;28.90;;;28.39;;
23573;SDS011;11965;53.640;10.050;2022-12-18T02:14:10;28.84;;;28.24;;
23573;SDS011;11965;53.640;10.050;2022-12-18T02:16:49;28.07;;;27.85;;
23573;SDS011;11965;53.640;10.050;2022-12-18T02:19:39;26.84;;;26.68;;
23573;SDS011;11965;53.640;10.050;2022-12-18T02:22:20;28.22;;;27.80;;
23573;SDS011;11965;53.640;10.050;2022-12-18T02:25:03;27.21;;;26.82;;
23573;SDS011;11965;53.640;10.050;2022-12-18T02:27:45;27.01;;;26.78;;
23573;SDS011;11965;53.640;10.050;2022-12-18T02:30:15;27.00;;;26.82;;
23573;SDS011;11965;53.640;10.050;2022-12-18T02:32:46;26.98;;;26.79;;
23573;SDS011;11965;53.640;10.050;2022-12-18T02:35:19;26.99;;;26.65;;
23573;SDS011;11965;53.640;10.050;2022-12-18T02:37:53;26.64;;;26.45;;
23573;SDS011;11965;53.640;10.050;2022-12-18T02:40:22;26.01;;;25.72;;
23573;SDS011;11965;53.640;10.050;2022-12-18T02:42:54;25.70;;;25.58;;
23573;SDS011;11965;53.640;10.050;2022-12-18T02:45:22;26.66;;;26.23;;
23573;SDS011;11965;53.640;10.050;2022-12-18T02:47:51;26.43;;;25.99;;
23573;SDS011;11965;53.640;10.050;2022-12-18T02:50:19;26.01;;;25.57;;
23573;SDS011;11965;53.640;10.050;2022-12-18T02:53:00;26.77;;;26.34;;
23573;SDS011;11965;53.640;10.050;2022-12-18T02:55:43;26.28;;;25.94;;
23573;SDS011;11965;53.640;10.050;2022-12-18T02:58:26;25.15;;;24.95;;
23573;SDS011;11965;53.640;10.050;2022-12-18T03:01:07;27.05;;;26.55;;
23573;SDS011;11965;53.640;10.050;2022-12-18T03:03:43;26.51;;;26.22;;
23573;SDS011;11965;53.640;10.050;2022-12-18T03:06:20;25.93;;;25.76;;
23573;SDS011;11965;53.640;10.050;2022-12-18T03:08:52;26.04;;;25.69;;
23573;SDS011;11965;53.640;10.050;2022-12-18T03:11:26;26.24;;;25.91;;
23573;SDS011;11965;53.640;10.050;2022-12-18T03:14:18;25.50;;;25.29;;
23573;SDS011;11965;53.640;10.050;2022-12-18T03:16:50;26.34;;;25.84;;
23573;SDS011;11965;53.640;10.050;2022-12-18T03:19:22;26.04;;;25.85;;
23573;SDS011;11965;53.640;10.050;2022-12-18T03:21:57;26.74;;;26.23;;
23573;SDS011;11965;53.640;10.050;2022-12-18T03:24:38;27.27;;;26.74;;
23573;SDS011;11965;53.640;10.050;2022-12-18T03:27:07;26.93;;;26.52;;
23573;SDS011;11965;53.640;10.050;2022-12-18T03:29:42;27.06;;;26.61;;
23573;SDS011;11965;53.640;10.050;2022-12-18T03:32:19;26.07;;;25.75;;
23573;SDS011;11965;53.640;10.050;2022-12-18T03:34:55;25.60;;;25.37;;
23573;SDS011;11965;53.640;10.050;2022-12-18T03:37:32;25.49;;;25.29;;
23573;SDS011;11965;53.640;10.050;2022-12-18T03:40:01;25.86;;;25.55;;
23573;SDS011;11965;53.640;10.050;2022-12-18T03:42:32;25.50;;;25.25;;
23573;SDS011;11965;53.640;10.050;2022-12-18T03:45:12;24.42;;;24.15;;
23573;SDS011;11965;53.640;10.050;2022-12-18T03:47:48;25.17;;;24.61;;
23573;SDS011;11965;53.640;10.050;2022-12-18T03:50:29;24.55;;;24.15;;
23573;SDS011;11965;53.640;10.050;2022-12-18T03:53:09;25.31;;;24.82;;
23573;SDS011;11965;53.640;10.050;2022-12-18T03:55:48;24.02;;;23.74;;
23573;SDS011;11965;53.640;10.050;2022-12-18T03:58:20;24.71;;;24.34;;
23573;SDS011;11965;53.640;10.050;2022-12-18T04:01:09;24.42;;;24.06;;
23573;SDS011;11965;53.640;10.050;2022-12-18T04:03:46;24.10;;;23.73;;
23573;SDS011;11965;53.640;10.050;2022-12-18T04:06:19;25.23;;;24.91;;
23573;SDS011;11965;53.640;10.050;2022-12-18T04:08:51;23.95;;;23.69;;
23573;SDS011;11965;53.640;10.050;2022-12-18T04:11:21;23.79;;;23.61;;
23573;SDS011;11965;53.640;10.050;2022-12-18T04:13:48;23.24;;;23.17;;
23573;SDS011;11965;53.640;10.050;2022-12-18T04:16:22;22.93;;;22.81;;
23573;SDS011;11965;53.640;10.050;2022-12-18T04:18:52;23.27;;;23.12;;
23573;SDS011;11965;53.640;10.050;2022-12-18T04:21:22;23.11;;;22.88;;
23573;SDS011;11965;53.640;10.050;2022-12-18T04:23:51;23.00;;;22.75;;
23573;SDS011;11965;53.640;10.050;2022-12-18T04:26:20;22.85;;;22.76;;
23573;SDS011;11965;53.640;10.050;2022-12-18T04:29:04;22.83;;;22.43;;
23573;SDS011;11965;53.640;10.050;2022-12-18T04:31:33;23.53;;;23.07;;
23573;SDS011;11965;53.640;10.050;2022-12-18T04:34:01;23.53;;;23.09;;
23573;SDS011;11965;53.640;10.050;2022-12-18T04:36:30;23.20;;;22.93;;
23573;SDS011;11965;53.640;10.050;2022-12-18T04:38:58;22.85;;;22.72;;
23573;SDS011;11965;53.640;10.050;2022-12-18T04:41:25;22.79;;;22.59;;
23573;SDS011;11965;53.640;10.050;2022-12-18T04:43:53;23.46;;;23.03;;
23573;SDS011;11965;53.640;10.050;2022-12-18T04:46:20;23.69;;;23.26;;
23573;SDS011;11965;53.640;10.050;2022-12-18T04:48:50;23.55;;;23.24;;
23573;SDS011;11965;53.640;10.050;2022-12-18T04:51:17;23.06;;;22.80;;
23573;SDS011;11965;53.640;10.050;2022-12-18T04:53:48;23.00;;;22.84;;
23573;SDS011;11965;53.640;10.050;2022-12-18T04:56:15;22.74;;;22.68;;
23573;SDS011;11965;53.640;10.050;2022-12-18T04:58:43;23.56;;;23.29;;
23573;SDS011;11965;53.640;10.050;2022-12-18T05:01:11;23.43;;;23.17;;
23573;SDS011;11965;53.640;10.050;2022-12-18T05:03:39;24.53;;;24.21;;
23573;SDS011;11965;53.640;10.050;2022-12-18T05:06:08;24.45;;;23.95;;
23573;SDS011;11965;53.640;10.050;2022-12-18T05:08:35;24.28;;;23.88;;
23573;SDS011;11965;53.640;10.050;2022-12-18T05:11:04;24.26;;;24.16;;
23573;SDS011;11965;53.640;10.050;2022-12-18T05:13:33;24.09;;;23.91;;
23573;SDS011;11965;53.640;10.050;2022-12-18T05:16:00;24.61;;;24.39;;
23573;SDS011;11965;53.640;10.050;2022-12-18T05:18:28;24.10;;;23.99;;
23573;SDS011;11965;53.640;10.050;2022-12-18T05:20:55;24.87;;;24.55;;
23573;SDS011;11965;53.640;10.050;2022-12-18T05:23:24;25.17;;;24.80;;
23573;SDS011;11965;53.640;10.050;2022-12-18T05:25:52;24.19;;;24.05;;
23573;SDS011;11965;53.640;10.050;2022-12-18T05:28:19;24.91;;;24.64;;
23573;SDS011;11965;53.640;10.050;2022-12-18T05:30:48;24.01;;;23.61;;
23573;SDS011;11965;53.640;10.050;2022-12-18T05:33:16;23.94;;;23.80;;
23573;SDS011;11965;53.640;10.050;2022-12-18T05:35:43;24.44;;;24.01;;
23573;SDS011;11965;53.640;10.050;2022-12-18T05:38:10;24.78;;;24.28;;
23573;SDS011;11965;53.640;10.050;2022-12-18T05:40:40;23.73;;;23.65;;
23573;SDS011;11965;53.640;10.050;2022-12-18T05:43:08;23.81;;;23.63;;
23573;SDS011;11965;53.640;10.050;2022-12-18T05:45:36;24.48;;;24.12;;
23573;SDS011;11965;53.640;10.050;2022-12-18T05:48:04;24.18;;;24.12;;
23573;SDS011;11965;53.640;10.050;2022-12-18T05:50:33;23.90;;;23.58;;
23573;SDS011;11965;53.640;10.050;2022-12-18T05:53:01;23.42;;;23.29;;
23573;SDS011;11965;53.640;10.050;2022-12-18T05:55:28;24.18;;;23.63;;
23573;SDS011;11965;53.640;10.050;2022-12-18T05:57:56;24.58;;;24.15;;
23573;SDS011;11965;53.640;10.050;2022-12-18T06:00:23;23.63;;;23.40;;
23573;SDS011;11965;53.640;10.050;2022-12-18T06:02:50;25.21;;;25.06;;
23573;SDS011;11965;53.640;10.050;2022-12-18T06:05:16;25.24;;;24.94;;
23573;SDS011;11965;53.640;10.050;2022-12-18T06:07:43;25.09;;;24.77;;
23573;SDS011;11965;53.640;10.050;2022-12-18T06:10:10;24.95;;;24.69;;
23573;SDS011;11965;53.640;10.050;2022-12-18T06:12:37;24.76;;;24.67;;
23573;SDS011;11965;53.640;10.050;2022-12-18T06:15:06;25.33;;;24.85;;
23573;SDS011;11965;53.640;10.050;2022-12-18T06:17:34;24.06;;;23.98;;
23573;SDS011;11965;53.640;10.050;2022-12-18T06:20:01;23.77;;;23.72;;
23573;SDS011;11965;53.640;10.050;2022-12-18T06:22:30;24.70;;;24.60;;
23573;SDS011;11965;53.640;10.050;2022-12-18T06:24:57;25.28;;;24.86;;
23573;SDS011;11965;53.640;10.050;2022-12-18T06:27:24;24.36;;;24.25;;
23573;SDS011;11965;53.640;10.050;2022-12-18T06:29:51;24.20;;;23.82;;
23573;SDS011;11965;53.640;10.050;2022-12-18T06:32:19;24.61;;;24.28;;
23573;SDS011;11965;53.640;10.050;2022-12-18T06:34:46;24.93;;;24.54;;
23573;SDS011;11965;53.640;10.050;2022-12-18T06:37:13;25.38;;;25.00;;
23573;SDS011;11965;53.640;10.050;2022-12-18T06:39:40;24.92;;;24.60;;
23573;SDS011;11965;53.640;10.050;2022-12-18T06:42:07;25.55;;;25.31;;
23573;SDS011;11965;53.640;10.050;2022-12-18T06:44:33;25.75;;;25.23;;
23573;SDS011;11965;53.640;10.050;2022-12-18T06:47:00;26.07;;;25.77;;
23573;SDS011;11965;53.640;10.050;2022-12-18T06:49:28;25.58;;;25.39;;
23573;SDS011;11965;53.640;10.050;2022-12-18T06:51:55;25.50;;;25.23;;
23573;SDS011;11965;53.640;10.050;2022-12-18T06:54:22;25.76;;;25.51;;
23573;SDS011;11965;53.640;10.050;2022-12-18T06:56:49;26.50;;;26.04;;
23573;SDS011;11965;53.640;10.050;2022-12-18T06:59:16;26.22;;;26.12;;
23573;SDS011;11965;53.640;10.050;2022-12-18T07:01:42;26.34;;;26.25;;
23573;SDS011;11965;53.640;10.050;2022-12-18T07:04:09;26.20;;;25.77;;
23573;SDS011;11965;53.640;10.050;2022-12-18T07:06:38;27.70;;;27.25;;
23573;SDS011;11965;53.640;10.050;2022-12-18T07:09:05;29.05;;;28.64;;
23573;SDS011;11965;53.640;10.050;2022-12-18T07:11:32;28.85;;;28.71;;
23573;SDS011;11965;53.640;10.050;2022-12-18T07:13:59;29.24;;;28.68;;
23573;SDS011;11965;53.640;10.050;2022-12-18T07:16:26;29.35;;;28.73;;
23573;SDS011;11965;53.640;10.050;2022-12-18T07:18:54;28.17;;;27.72;;
23573;SDS011;11965;53.640;10.050;2022-12-18T07:21:23;27.72;;;27.43;;
23573;SDS011;11965;53.640;10.050;2022-12-18T07:23:52;27.78;;;27.45;;
23573;SDS011;11965;53.640;10.050;2022-12-18T07:26:20;28.40;;;27.99;;
23573;SDS011;11965;53.640;10.050;2022-12-18T07:28:48;27.82;;;27.42;;
23573;SDS011;11965;53.640;10.050;2022-12-18T07:31:16;28.18;;;27.85;;
23573;SDS011;11965;53.640;10.050;2022-12-18T07:33:45;29.10;;;28.73;;
23573;SDS011;11965;53.640;10.050;2022-12-18T07:36:13;29.74;;;29.27;;
23573;SDS011;11965;53.640;10.050;2022-12-18T07:38:40;28.64;;;28.42;;
23573;SDS011;11965;53.640;10.050;2022-12-18T07:41:14;29.36;;;28.88;;
23573;SDS011;11965;53.640;10.050;2022-12-18T07:43:42;29.34;;;29.00;;
23573;SDS011;11965;53.640;10.050;2022-12-18T07:46:09;27.87;;;27.60;;
23573;SDS011;11965;53.640;10.050;2022-12-18T07:48:38;29.06;;;28.63;;
23573;SDS011;11965;53.640;10.050;2022-12-18T07:51:06;29.26;;;28.79;;
23573;SDS011;11965;53.640;10.050;2022-12-18T07:53:36;29.55;;;29.11;;
23573;SDS011;11965;53.640;10.050;2022-12-18T07:56:04;30.24;;;29.62;;
23573;SDS011;11965;53.640;10.050;2022-12-18T07:58:35;30.66;;;29.92;;
23573;SDS011;11965;53.640;10.050;2022-12-18T08:01:03;28.97;;;28.65;;
23573;SDS011;11965;53.640;10.050;2022-12-18T08:03:30;29.61;;;29.21;;
23573;SDS011;11965;53.640;10.050;2022-12-18T08:05:58;27.81;;;27.60;;
23573;SDS011;11965;53.640;10.050;2022-12-18T08:08:26;28.89;;;28.53;;
23573;SDS011;11965;53.640;10.050;2022-12-18T08:10:53;28.89;;;28.60;;
23573;SDS011;11965;53.640;10.050;2022-12-18T08:13:20;29.85;;;29.43;;
23573;SDS011;11965;53.640;10.050;2022-12-18T08:15:56;29.14;;;28.91;;
23573;SDS011;11965;53.640;10.050;2022-12-18T08:18:23;29.32;;;28.82;;
23573;SDS011;11965;53.640;10.050;2022-12-18T08:20:51;29.11;;;28.69;;
23573;SDS011;11965;53.640;10.050;2022-12-18T08:23:18;29.93;;;29.40;;
23573;SDS011;11965;53.640;10.050;2022-12-18T08:25:45;29.98;;;29.40;;
23573;SDS011;11965;53.640;10.050;2022-12-18T08:28:12;30.84;;;30.33;;
23573;SDS011;11965;53.640;10.050;2022-12-18T08:30:46;30.59;;;29.98;;
23573;SDS011;11965;53.640;10.050;2022-12-18T08:33:19;30.76;;;30.30;;
23573;SDS011;11965;53.640;10.050;2022-12-18T08:35:45;30.08;;;29.92;;
23573;SDS011;11965;53.640;10.050;2022-12-18T08:38:13;30.05;;;29.83;;
23573;SDS011;11965;53.640;10.050;2022-12-18T08:40:40;31.39;;;31.20;;
23573;SDS011;11965;53.640;10.050;2022-12-18T08:43:07;34.51;;;34.09;;
23573;SDS011;11965;53.640;10.050;2022-12-18T08:45:52;33.01;;;32.47;;
23573;SDS011;11965;53.640;10.050;2022-12-18T08:48:21;30.99;;;30.82;;
23573;SDS011;11965;53.640;10.050;2022-12-18T08:54:05;33.14;;;32.99;;
23573;SDS011;11965;53.640;10.050;2022-12-18T08:56:32;30.81;;;30.41;;
23573;SDS011;11965;53.640;10.050;2022-12-18T08:58:59;30.94;;;30.59;;
23573;SDS011;11965;53.640;10.050;2022-12-18T09:01:26;29.57;;;29.34;;
23573;SDS011;11965;53.640;10.050;2022-12-18T09:03:55;30.90;;;30.58;;
23573;SDS011;11965;53.640;10.050;2022-12-18T09:06:22;32.65;;;32.38;;
23573;SDS011;11965;53.640;10.050;2022-12-18T09:08:49;31.50;;;31.29;;
23573;SDS011;11965;53.640;10.050;2022-12-18T09:11:19;30.92;;;30.34;;
23573;SDS011;11965;53.640;10.050;2022-12-18T09:13:48;29.92;;;29.47;;
23573;SDS011;11965;53.640;10.050;2022-12-18T09:16:16;29.24;;;28.71;;
23573;SDS011;11965;53.640;10.050;2022-12-18T09:18:44;28.55;;;27.92;;
23573;SDS011;11965;53.640;10.050;2022-12-18T09:21:14;28.82;;;28.43;;
23573;SDS011;11965;53.640;10.050;2022-12-18T09:23:42;30.12;;;29.22;;
23573;SDS011;11965;53.640;10.050;2022-12-18T09:26:10;30.62;;;30.43;;
23573;SDS011;11965;53.640;10.050;2022-12-18T09:28:37;32.64;;;32.32;;
23573;SDS011;11965;53.640;10.050;2022-12-18T09:31:04;31.68;;;31.48;;
23573;SDS011;11965;53.640;10.050;2022-12-18T09:33:33;33.14;;;32.70;;
23573;SDS011;11965;53.640;10.050;2022-12-18T09:36:01;28.09;;;27.87;;
23573;SDS011;11965;53.640;10.050;2022-12-18T09:38:31;27.78;;;27.40;;
23573;SDS011;11965;53.640;10.050;2022-12-18T09:41:00;27.23;;;26.77;;
23573;SDS011;11965;53.640;10.050;2022-12-18T09:43:45;28.02;;;27.45;;
23573;SDS011;11965;53.640;10.050;2022-12-18T09:46:17;28.57;;;28.22;;
23573;SDS011;11965;53.640;10.050;2022-12-18T09:48:53;27.69;;;27.27;;
23573;SDS011;11965;53.640;10.050;2022-12-18T09:51:26;27.76;;;27.30;;
23573;SDS011;11965;53.640;10.050;2022-12-18T09:54:01;28.77;;;28.18;;
23573;SDS011;11965;53.640;10.050;2022-12-18T09:56:35;29.10;;;28.48;;
23573;SDS011;11965;53.640;10.050;2022-12-18T09:59:09;29.55;;;28.86;;
23573;SDS011;11965;53.640;10.050;2022-12-18T10:01:45;27.55;;;26.97;;
23573;SDS011;11965;53.640;10.050;2022-12-18T10:04:16;29.96;;;29.50;;
23573;SDS011;11965;53.640;10.050;2022-12-18T10:06:44;27.63;;;27.20;;
23573;SDS011;11965;53.640;10.050;2022-12-18T10:09:23;28.10;;;27.65;;
23573;SDS011;11965;53.640;10.050;2022-12-18T10:12:00;26.60;;;26.02;;
23573;SDS011;11965;53.640;10.050;2022-12-18T10:14:36;28.10;;;27.67;;
23573;SDS011;11965;53.640;10.050;2022-12-18T10:17:14;29.71;;;29.53;;
23573;SDS011;11965;53.640;10.050;2022-12-18T10:19:54;28.14;;;27.84;;
23573;SDS011;11965;53.640;10.050;2022-12-18T10:22:30;27.18;;;26.60;;
23573;SDS011;11965;53.640;10.050;2022-12-18T10:25:17;27.25;;;26.55;;
23573;SDS011;11965;53.640;10.050;2022-12-18T10:27:51;27.20;;;26.74;;
23573;SDS011;11965;53.640;10.050;2022-12-18T10:30:22;26.95;;;26.38;;
23573;SDS011;11965;53.640;10.050;2022-12-18T10:32:50;26.95;;;26.50;;
23573;SDS011;11965;53.640;10.050;2022-12-18T10:35:18;26.70;;;26.28;;
23573;SDS011;11965;53.640;10.050;2022-12-18T10:38:00;26.76;;;26.32;;
23573;SDS011;11965;53.640;10.050;2022-12-18T10:40:34;25.81;;;25.46;;
23573;SDS011;11965;53.640;10.050;2022-12-18T10:43:19;27.72;;;26.94;;
23573;SDS011;11965;53.640;10.050;2022-12-18T10:45:58;28.89;;;28.04;;
23573;SDS011;11965;53.640;10.050;2022-12-18T10:48:32;53.88;;;52.38;;
23573;SDS011;11965;53.640;10.050;2022-12-18T10:51:02;37.90;;;37.08;;
23573;SDS011;11965;53.640;10.050;2022-12-18T10:53:30;58.52;;;56.77;;
23573;SDS011;11965;53.640;10.050;2022-12-18T10:56:05;29.78;;;29.12;;
23573;SDS011;11965;53.640;10.050;2022-12-18T10:58:58;26.54;;;26.06;;
23573;SDS011;11965;53.640;10.050;2022-12-18T11:01:27;26.70;;;26.12;;
23573;SDS011;11965;53.640;10.050;2022-12-18T11:04:13;24.85;;;24.45;;
23573;SDS011;11965;53.640;10.050;2022-12-18T11:06:52;29.84;;;29.23;;
23573;SDS011;11965;53.640;10.050;2022-12-18T11:09:24;29.48;;;29.01;;
23573;SDS011;11965;53.640;10.050;2022-12-18T11:11:55;28.40;;;27.78;;
23573;SDS011;11965;53.640;10.050;2022-12-18T11:14:25;28.27;;;27.44;;
23573;SDS011;11965;53.640;10.050;2022-12-18T11:16:55;27.05;;;26.40;;
23573;SDS011;11965;53.640;10.050;2022-12-18T11:19:28;27.18;;;26.70;;
23573;SDS011;11965;53.640;10.050;2022-12-18T11:21:59;25.72;;;25.07;;
23573;SDS011;11965;53.640;10.050;2022-12-18T11:24:29;26.00;;;25.38;;
23573;SDS011;11965;53.640;10.050;2022-12-18T11:27:02;24.47;;;24.16;;
23573;SDS011;11965;53.640;10.050;2022-12-18T11:29:32;25.39;;;24.81;;
23573;SDS011;11965;53.640;10.050;2022-12-18T11:34:51;24.38;;;23.89;;
23573;SDS011;11965;53.640;10.050;2022-12-18T11:37:26;24.59;;;24.06;;
23573;SDS011;11965;53.640;10.050;2022-12-18T11:39:56;25.25;;;24.67;;
23573;SDS011;11965;53.640;10.050;2022-12-18T11:42:30;24.90;;;24.39;;
23573;SDS011;11965;53.640;10.050;2022-12-18T11:45:08;27.00;;;26.55;;
23573;SDS011;11965;53.640;10.050;2022-12-18T11:47:52;32.20;;;31.89;;
23573;SDS011;11965;53.640;10.050;2022-12-18T11:50:26;27.51;;;26.85;;
23573;SDS011;11965;53.640;10.050;2022-12-18T11:53:00;30.10;;;29.57;;
23573;SDS011;11965;53.640;10.050;2022-12-18T11:55:38;28.42;;;27.53;;
23573;SDS011;11965;53.640;10.050;2022-12-18T11:58:17;27.46;;;26.86;;
23573;SDS011;11965;53.640;10.050;2022-12-18T12:01:00;26.93;;;26.20;;
23573;SDS011;11965;53.640;10.050;2022-12-18T12:03:45;29.60;;;28.76;;
23573;SDS011;11965;53.640;10.050;2022-12-18T12:06:35;32.92;;;32.35;;
23573;SDS011;11965;53.640;10.050;2022-12-18T12:09:16;26.23;;;25.66;;
23573;SDS011;11965;53.640;10.050;2022-12-18T12:11:55;27.75;;;26.96;;
23573;SDS011;11965;53.640;10.050;2022-12-18T12:14:42;28.34;;;27.63;;
23573;SDS011;11965;53.640;10.050;2022-12-18T12:17:24;26.37;;;25.71;;
23573;SDS011;11965;53.640;10.050;2022-12-18T12:20:06;24.78;;;24.11;;
23573;SDS011;11965;53.640;10.050;2022-12-18T12:22:44;24.06;;;23.57;;
23573;SDS011;11965;53.640;10.050;2022-12-18T12:25:28;24.42;;;23.73;;
23573;SDS011;11965;53.640;10.050;2022-12-18T12:28:09;25.57;;;25.00;;
23573;SDS011;11965;53.640;10.050;2022-12-18T12:30:52;25.23;;;24.62;;
23573;SDS011;11965;53.640;10.050;2022-12-18T12:33:34;22.10;;;21.82;;
23573;SDS011;11965;53.640;10.050;2022-12-18T12:36:16;22.34;;;21.97;;
23573;SDS011;11965;53.640;10.050;2022-12-18T12:38:54;21.79;;;21.27;;
23573;SDS011;11965;53.640;10.050;2022-12-18T12:41:28;22.81;;;22.44;;
23573;SDS011;11965;53.640;10.050;2022-12-18T12:44:18;26.71;;;26.12;;
23573;SDS011;11965;53.640;10.050;2022-12-18T12:46:51;26.51;;;25.89;;
23573;SDS011;11965;53.640;10.050;2022-12-18T12:49:26;28.16;;;27.43;;
23573;SDS011;11965;53.640;10.050;2022-12-18T12:52:05;34.85;;;33.65;;
23573;SDS011;11965;53.640;10.050;2022-12-18T12:54:44;30.03;;;29.24;;
23573;SDS011;11965;53.640;10.050;2022-12-18T12:57:14;24.52;;;23.84;;
23573;SDS011;11965;53.640;10.050;2022-12-18T12:59:50;25.27;;;24.63;;
23573;SDS011;11965;53.640;10.050;2022-12-18T13:02:30;25.21;;;24.65;;
23573;SDS011;11965;53.640;10.050;2022-12-18T13:05:09;24.68;;;23.99;;
23573;SDS011;11965;53.640;10.050;2022-12-18T13:07:46;26.70;;;26.15;;
23573;SDS011;11965;53.640;10.050;2022-12-18T13:10:23;32.06;;;31.61;;
23573;SDS011;11965;53.640;10.050;2022-12-18T13:13:02;27.99;;;27.47;;
23573;SDS011;11965;53.640;10.050;2022-12-18T13:15:35;26.38;;;25.98;;
23573;SDS011;11965;53.640;10.050;2022-12-18T13:18:10;24.82;;;24.16;;
23573;SDS011;11965;53.640;10.050;2022-12-18T13:20:44;25.72;;;25.06;;
23573;SDS011;11965;53.640;10.050;2022-12-18T13:23:27;25.74;;;25.06;;
23573;SDS011;11965;53.640;10.050;2022-12-18T13:28:57;25.69;;;24.75;;
23573;SDS011;11965;53.640;10.050;2022-12-18T13:34:33;25.02;;;24.32;;
23573;SDS011;11965;53.640;10.050;2022-12-18T13:43:01;26.22;;;25.49;;
23573;SDS011;11965;53.640;10.050;2022-12-18T13:45:47;27.17;;;26.13;;
23573;SDS011;11965;53.640;10.050;2022-12-18T13:48:25;27.65;;;26.76;;
23573;SDS011;11965;53.640;10.050;2022-12-18T13:51:00;27.02;;;26.12;;
23573;SDS011;11965;53.640;10.050;2022-12-18T13:53:35;26.49;;;25.67;;
23573;SDS011;11965;53.640;10.050;2022-12-18T13:56:08;27.92;;;26.86;;
23573;SDS011;11965;53.640;10.050;2022-12-18T13:58:36;29.94;;;28.78;;
23573;SDS011;11965;53.640;10.050;2022-12-18T14:01:03;29.56;;;28.41;;
23573;SDS011;11965;53.640;10.050;2022-12-18T14:03:31;28.28;;;27.30;;
23573;SDS011;11965;53.640;10.050;2022-12-18T14:06:01;28.72;;;27.86;;
23573;SDS011;11965;53.640;10.050;2022-12-18T14:08:33;28.53;;;27.70;;
23573;SDS011;11965;53.640;10.050;2022-12-18T14:11:04;27.85;;;27.10;;
23573;SDS011;11965;53.640;10.050;2022-12-18T14:13:35;29.41;;;28.40;;
23573;SDS011;11965;53.640;10.050;2022-12-18T14:16:11;27.90;;;27.13;;
23573;SDS011;11965;53.640;10.050;2022-12-18T14:18:43;27.54;;;26.67;;
23573;SDS011;11965;53.640;10.050;2022-12-18T14:21:19;30.52;;;29.41;;
23573;SDS011;11965;53.640;10.050;2022-12-18T14:23:49;28.88;;;27.81;;
23573;SDS011;11965;53.640;10.050;2022-12-18T14:26:31;27.80;;;27.02;;
23573;SDS011;11965;53.640;10.050;2022-12-18T14:28:59;28.79;;;27.96;;
23573;SDS011;11965;53.640;10.050;2022-12-18T14:31:43;28.38;;;27.32;;
23573;SDS011;11965;53.640;10.050;2022-12-18T14:34:14;29.15;;;28.07;;
23573;SDS011;11965;53.640;10.050;2022-12-18T14:36:44;30.08;;;28.95;;
23573;SDS011;11965;53.640;10.050;2022-12-18T14:39:21;29.93;;;28.72;;
23573;SDS011;11965;53.640;10.050;2022-12-18T14:41:49;31.00;;;29.54;;
23573;SDS011;11965;53.640;10.050;2022-12-18T14:44:16;30.96;;;29.89;;
23573;SDS011;11965;53.640;10.050;2022-12-18T14:46:43;32.28;;;30.81;;
23573;SDS011;11965;53.640;10.050;2022-12-18T14:49:17;32.96;;;31.85;;
23573;SDS011;11965;53.640;10.050;2022-12-18T14:51:51;32.04;;;31.11;;
23573;SDS011;11965;53.640;10.050;2022-12-18T14:54:21;33.26;;;32.19;;